createdAt,value
2023-05-04T00:09:25.383Z,100176.67
2023-05-04T00:18:59.353Z,100173.13
2023-05-04T00:28:34.842Z,100165.34
2023-05-04T00:38:08.485Z,100160.13
2023-05-04T00:47:42.512Z,100149.34
2023-05-04T00:57:14.696Z,100154.05
2023-05-04T01:06:48.684Z,100155.53
2023-05-04T01:16:24.574Z,100147.02
2023-05-04T01:25:57.083Z,100138.15
2023-05-04T01:35:32.837Z,100133.56
2023-05-04T01:45:05.376Z,100141.02
2023-05-04T01:54:39.574Z,100150.16
2023-05-04T02:04:13.784Z,100136.69
2023-05-04T02:13:48.076Z,100134.95
2023-05-04T02:23:23.251Z,100135.48
2023-05-04T02:32:56.737Z,100141.49
2023-05-04T02:42:30.697Z,100124.19
2023-05-04T02:52:04.418Z,100117.28
2023-05-04T02:53:08.443Z,100114.19
2023-05-04T03:02:39.865Z,100117.54
2023-05-04T03:12:13.575Z,100106.25
2023-05-04T03:21:49.067Z,100104.37
2023-05-04T03:31:21.254Z,100100.58
2023-05-04T03:40:56.695Z,100100.29
2023-05-04T03:50:29.124Z,100092.05
2023-05-04T04:00:05.208Z,100094.22
2023-05-04T04:09:39.173Z,100107.47
2023-05-04T04:19:11.604Z,100099.63
2023-05-04T04:28:45.832Z,100102.56
2023-05-04T04:38:21.489Z,100106.73
2023-05-04T04:47:54.078Z,100112.31
2023-05-04T04:57:29.959Z,100120.61
2023-05-04T05:07:02.746Z,100111.28
2023-05-04T05:16:36.891Z,100114.25
2023-05-04T05:26:13.256Z,100124.47
2023-05-04T05:35:47.105Z,100125.57
2023-05-04T05:45:20.422Z,100129.08
2023-05-04T05:54:54.704Z,100122.20
2023-05-04T05:55:58.826Z,100123.98
2023-05-04T06:06:45.720Z,100117.27
2023-05-04T06:07:47.487Z,100117.89
2023-05-04T06:08:49.821Z,100118.16
2023-05-04T06:09:52.223Z,100117.45
2023-05-04T06:10:56.304Z,100119.70
2023-05-04T06:11:58.647Z,100112.72
2023-05-04T06:13:01.038Z,100116.94
2023-05-04T06:14:03.455Z,100116.47
2023-05-04T06:15:05.905Z,100117.11
2023-05-04T06:16:08.353Z,100114.44
2023-05-04T06:17:10.708Z,100109.99
2023-05-04T06:18:13.139Z,100110.42
2023-05-04T06:19:17.199Z,100112.88
2023-05-04T06:20:19.546Z,100112.00
2023-05-04T06:21:21.921Z,100112.55
2023-05-04T06:22:24.360Z,100108.98
2023-05-04T06:23:28.418Z,100111.68
2023-05-04T06:24:31.720Z,100117.55
2023-05-04T06:25:35.666Z,100115.95
2023-05-04T06:26:37.930Z,100118.83
2023-05-04T06:27:40.321Z,100116.16
2023-05-04T06:28:42.762Z,100116.38
2023-05-04T06:29:46.816Z,100118.09
2023-05-04T06:30:50.687Z,100110.01
2023-05-04T06:31:54.738Z,100110.73
2023-05-04T06:32:58.678Z,100112.42
2023-05-04T06:34:00.965Z,100112.46
2023-05-04T06:35:05.024Z,100111.28
2023-05-04T06:36:08.880Z,100109.68
2023-05-04T06:37:11.979Z,100112.67
2023-05-04T06:46:45.265Z,100113.27
2023-05-04T06:47:47.671Z,100114.14
2023-05-04T06:48:51.715Z,100111.68
2023-05-04T06:49:54.006Z,100112.83
2023-05-04T06:50:56.445Z,100114.09
2023-05-04T06:51:58.898Z,100110.87
2023-05-04T06:53:01.363Z,100113.56
2023-05-04T06:54:05.420Z,100113.02
2023-05-04T06:55:10.578Z,100109.71
2023-05-04T06:56:12.803Z,100111.31
2023-05-04T06:57:15.257Z,100116.50
2023-05-04T06:58:17.673Z,100117.95
2023-05-04T06:59:21.785Z,100119.72
2023-05-04T07:00:25.703Z,100115.63
2023-05-04T07:01:28.014Z,100115.06
2023-05-04T07:02:30.379Z,100117.38
2023-05-04T07:03:34.391Z,100118.70
2023-05-04T07:04:36.753Z,100117.86
2023-05-04T07:05:40.772Z,100119.98
2023-05-04T07:06:43.190Z,100118.20
2023-05-04T07:07:47.632Z,100119.48
2023-05-04T07:08:49.469Z,100111.55
2023-05-04T07:09:53.500Z,100111.16
2023-05-04T07:10:55.951Z,100107.56
2023-05-04T07:11:58.307Z,100114.80
2023-05-04T07:21:32.543Z,100115.46
2023-05-04T07:22:36.449Z,100114.83
2023-05-04T07:23:40.491Z,100109.15
2023-05-04T07:24:44.486Z,100113.30
2023-05-04T07:25:48.354Z,100116.77
2023-05-04T07:26:50.727Z,100110.80
2023-05-04T07:27:54.695Z,100113.02
2023-05-04T07:28:57.015Z,100113.13
2023-05-04T07:30:01.003Z,100115.14
2023-05-04T07:31:03.422Z,100108.41
2023-05-04T07:32:07.417Z,100111.00
2023-05-04T07:33:09.807Z,100104.66
2023-05-04T07:34:12.110Z,100107.09
2023-05-04T07:35:16.150Z,100101.86
2023-05-04T07:36:18.529Z,100103.04
2023-05-04T07:37:20.930Z,100097.84
2023-05-04T07:38:23.430Z,100099.95
2023-05-04T07:39:27.422Z,100099.72
2023-05-04T07:40:29.734Z,100094.31
2023-05-04T07:41:32.181Z,100098.61
2023-05-04T07:42:34.572Z,100090.66
2023-05-04T07:43:38.618Z,100095.66
2023-05-04T07:44:40.954Z,100094.94
2023-05-04T07:45:45.063Z,100092.83
2023-05-04T07:46:49.906Z,100090.97
2023-05-04T07:47:53.820Z,100087.00
2023-05-04T07:48:57.637Z,100085.56
2023-05-04T07:49:59.920Z,100088.94
2023-05-04T07:51:02.352Z,100094.59
2023-05-04T07:52:04.774Z,100089.25
2023-05-04T07:53:07.197Z,100091.36
2023-05-04T07:54:09.780Z,100088.74
2023-05-04T07:55:13.720Z,100096.91
2023-05-04T07:56:17.140Z,100096.95
2023-05-04T07:57:19.470Z,100088.40
2023-05-04T07:58:21.896Z,100092.33
2023-05-04T07:59:24.398Z,100091.02
2023-05-04T08:00:26.822Z,100089.68
2023-05-04T08:01:30.866Z,100092.20
2023-05-04T08:02:33.316Z,100094.31
2023-05-04T08:03:37.228Z,100090.55
2023-05-04T08:04:39.478Z,100097.08
2023-05-04T08:05:41.949Z,100089.98
2023-05-04T08:06:44.441Z,100095.20
2023-05-04T08:07:48.516Z,100092.13
2023-05-04T08:08:53.414Z,100091.07
2023-05-04T08:09:57.280Z,100088.79
2023-05-04T08:11:08.355Z,100084.69
2023-05-04T08:12:03.600Z,100083.39
2023-05-04T08:13:05.974Z,100077.31
2023-05-04T08:14:09.958Z,100083.75
2023-05-04T08:15:13.847Z,100073.97
2023-05-04T08:16:16.151Z,100077.46
2023-05-04T08:17:20.245Z,100080.63
2023-05-04T08:18:24.184Z,100077.72
2023-05-04T08:19:26.476Z,100072.66
2023-05-04T08:20:30.437Z,100075.16
2023-05-04T08:21:32.704Z,100069.06
2023-05-04T08:22:36.788Z,100069.86
2023-05-04T08:23:40.653Z,100071.70
2023-05-04T08:24:42.962Z,100073.44
2023-05-04T08:25:45.420Z,100074.60
2023-05-04T08:26:55.869Z,100071.30
2023-05-04T08:27:51.902Z,100071.13
2023-05-04T08:28:54.222Z,100066.63
2023-05-04T08:29:56.660Z,100068.06
2023-05-04T08:30:59.040Z,100062.23
2023-05-04T08:32:01.590Z,100068.28
2023-05-04T08:33:05.616Z,100064.97
2023-05-04T08:34:09.473Z,100057.08
2023-05-04T08:35:13.428Z,100070.01
2023-05-04T08:36:16.752Z,100059.80
2023-05-04T08:37:19.114Z,100063.45
2023-05-04T08:38:21.554Z,100061.36
2023-05-04T08:39:25.618Z,100061.98
2023-05-04T08:40:27.960Z,100052.32
2023-05-04T08:41:30.424Z,100050.17
2023-05-04T08:42:34.518Z,100052.48
2023-05-04T08:43:36.798Z,100052.47
2023-05-04T08:44:39.225Z,100047.78
2023-05-04T08:45:43.352Z,100050.27
2023-05-04T08:46:47.750Z,100047.41
2023-05-04T08:49:07.805Z,100044.56
2023-05-04T08:50:09.931Z,100047.47
2023-05-04T08:51:13.826Z,100046.47
2023-05-04T08:52:17.750Z,100047.32
2023-05-04T08:53:23.129Z,100039.02
2023-05-04T08:54:31.940Z,100046.16
2023-05-04T08:55:36.896Z,100045.13
2023-05-04T08:56:40.888Z,100040.19
2023-05-04T08:57:44.737Z,100044.40
2023-05-04T08:58:48.692Z,100042.48
2023-05-04T08:59:52.573Z,100044.16
2023-05-04T09:00:54.895Z,100042.69
2023-05-04T09:01:57.315Z,100045.67
2023-05-04T09:02:59.873Z,100044.27
2023-05-04T09:04:03.905Z,100036.05
2023-05-04T09:05:06.268Z,100038.05
2023-05-04T09:06:08.670Z,100036.48
2023-05-04T09:07:11.067Z,100042.82
2023-05-04T09:08:15.316Z,100039.97
2023-05-04T09:09:19.236Z,100042.02
2023-05-04T09:18:51.404Z,100037.47
2023-05-04T09:19:53.796Z,100035.02
2023-05-04T09:20:56.234Z,100036.58
2023-05-04T09:21:58.694Z,100035.80
2023-05-04T09:23:02.776Z,100029.17
2023-05-04T09:24:06.752Z,100033.31
2023-05-04T09:25:09.130Z,100031.93
2023-05-04T09:26:11.582Z,100025.91
2023-05-04T09:27:14.091Z,100025.77
2023-05-04T09:28:16.497Z,100028.69
2023-05-04T09:29:20.570Z,100028.70
2023-05-04T09:30:24.540Z,100024.13
2023-05-04T09:31:28.543Z,100026.19
2023-05-04T09:32:36.462Z,100028.36
2023-05-04T09:33:40.216Z,100027.19
2023-05-04T09:34:44.160Z,100027.34
2023-05-04T09:35:46.451Z,100027.70
2023-05-04T09:36:48.882Z,100028.28
2023-05-04T09:37:53.018Z,100027.65
2023-05-04T09:38:55.537Z,100021.14
2023-05-04T09:39:59.516Z,100020.30
2023-05-04T09:41:01.980Z,100028.68
2023-05-04T09:42:06.932Z,100019.79
2023-05-04T09:43:10.918Z,100026.25
2023-05-04T09:44:18.093Z,100023.56
2023-05-04T09:45:20.517Z,100023.20
2023-05-04T09:46:23.005Z,100023.17
2023-05-04T09:47:27.026Z,100028.00
2023-05-04T09:48:29.438Z,100026.38
2023-05-04T09:49:31.816Z,100022.45
2023-05-04T09:50:35.954Z,100019.55
2023-05-04T09:51:38.304Z,100019.98
2023-05-04T09:52:40.780Z,100018.55
2023-05-04T09:53:44.828Z,100015.33
2023-05-04T09:54:48.709Z,100016.20
2023-05-04T09:55:51.009Z,100016.41
2023-05-04T09:56:53.463Z,100016.03
2023-05-04T09:57:55.940Z,100013.73
2023-05-04T09:58:58.413Z,100014.09
2023-05-04T10:00:00.863Z,100012.52
2023-05-04T10:01:03.355Z,100010.52
2023-05-04T10:02:14.364Z,100007.84
2023-05-04T10:03:08.281Z,100008.33
2023-05-04T10:04:10.730Z,100011.05
2023-05-04T10:05:14.813Z,100012.05
2023-05-04T10:06:17.102Z,100005.27
2023-05-04T10:07:21.292Z,100011.73
2023-05-04T10:08:23.491Z,100011.99
2023-05-04T10:09:27.561Z,100011.69
2023-05-04T10:10:29.898Z,100007.36
2023-05-04T10:11:33.931Z,100007.94
2023-05-04T10:12:37.878Z,100013.88
2023-05-04T10:13:40.236Z,100006.81
2023-05-04T10:14:42.721Z,100005.08
2023-05-04T10:15:45.178Z,100007.56
2023-05-04T10:16:49.203Z,100006.40
2023-05-04T10:17:53.368Z,100007.52
2023-05-04T10:18:57.280Z,100003.34
2023-05-04T10:19:59.632Z,100000.24
2023-05-04T10:21:02.028Z,99997.33
2023-05-04T10:22:06.132Z,99994.34
2023-05-04T10:23:08.482Z,99994.41
2023-05-04T10:24:10.896Z,99989.26
2023-05-04T10:25:13.363Z,99988.49
2023-05-04T10:26:17.465Z,99985.92
2023-05-04T10:27:19.767Z,99985.59
2023-05-04T10:28:22.243Z,99984.94
2023-05-04T10:29:24.736Z,99984.38
2023-05-04T10:30:28.786Z,99981.91
2023-05-04T10:31:32.786Z,99980.56
2023-05-04T10:32:36.703Z,99982.55
2023-05-04T10:33:40.588Z,99980.84
2023-05-04T10:34:44.514Z,99979.83
2023-05-04T10:35:48.552Z,99972.11
2023-05-04T10:36:52.380Z,99973.91
2023-05-04T10:37:54.775Z,99966.36
2023-05-04T10:38:58.811Z,99967.05
2023-05-04T10:40:01.151Z,99964.61
2023-05-04T10:41:05.138Z,99963.89
2023-05-04T10:42:07.715Z,99965.17
2023-05-04T10:43:11.614Z,99963.21
2023-05-04T10:44:13.865Z,99961.00
2023-05-04T10:45:16.297Z,99959.13
2023-05-04T10:46:18.806Z,99952.84
2023-05-04T10:47:22.834Z,99952.52
2023-05-04T10:48:25.122Z,99949.09
2023-05-04T10:49:29.190Z,99951.62
2023-05-04T10:50:33.164Z,99946.92
2023-05-04T10:51:42.624Z,99943.11
2023-05-04T10:52:37.925Z,99941.27
2023-05-04T10:53:41.957Z,99940.36
2023-05-04T10:54:44.209Z,99939.24
2023-05-04T10:55:53.624Z,99938.61
2023-05-04T10:57:00.671Z,99937.42
2023-05-04T10:58:04.464Z,99934.89
2023-05-04T10:59:12.436Z,99933.48
2023-05-04T11:00:19.071Z,99928.14
2023-05-04T11:01:22.800Z,99929.66
2023-05-04T11:02:25.112Z,99922.40
2023-05-04T11:03:27.515Z,99920.94
2023-05-04T11:04:31.564Z,99919.89
2023-05-04T11:05:33.883Z,99916.84
2023-05-04T11:06:38.007Z,99913.06
2023-05-04T11:07:40.349Z,99909.98
2023-05-04T11:08:44.466Z,99908.44
2023-05-04T11:09:48.512Z,99907.38
2023-05-04T11:10:50.788Z,99904.62
2023-05-04T11:11:54.862Z,99907.97
2023-05-04T11:12:57.306Z,99896.84
2023-05-04T11:14:01.354Z,99898.30
2023-05-04T11:15:03.817Z,99901.20
2023-05-04T11:16:06.163Z,99897.34
2023-05-04T11:17:20.156Z,99896.13
2023-05-04T11:18:11.102Z,99890.99
2023-05-04T11:19:15.313Z,99898.67
2023-05-04T11:20:17.666Z,99895.67
2023-05-04T11:21:21.727Z,99897.30
2023-05-04T11:22:24.189Z,99889.66
2023-05-04T11:23:26.640Z,99882.43
2023-05-04T11:24:29.040Z,99877.92
2023-05-04T11:25:31.543Z,99879.20
2023-05-04T11:26:35.602Z,99877.48
2023-05-04T11:27:39.490Z,99876.44
2023-05-04T11:28:43.491Z,99875.91
2023-05-04T11:29:47.579Z,99880.00
2023-05-04T11:30:49.895Z,99876.91
2023-05-04T11:31:54.174Z,99869.54
2023-05-04T11:32:56.390Z,99876.98
2023-05-04T11:34:00.378Z,99876.09
2023-05-04T11:35:05.761Z,99871.17
2023-05-04T11:36:07.867Z,99872.32
2023-05-04T11:37:11.993Z,99870.31
2023-05-04T11:38:15.935Z,99875.42
2023-05-04T11:39:18.262Z,99870.35
2023-05-04T11:40:20.769Z,99875.59
2023-05-04T11:41:24.813Z,99872.95
2023-05-04T11:42:27.147Z,99871.25
2023-05-04T11:43:31.242Z,99872.77
2023-05-04T11:44:34.688Z,99873.73
2023-05-04T11:45:37.144Z,99872.63
2023-05-04T11:46:39.670Z,99870.94
2023-05-04T11:47:42.130Z,99873.01
2023-05-04T11:48:46.186Z,99868.73
2023-05-04T11:49:48.613Z,99868.73
2023-05-04T11:50:51.070Z,99866.69
2023-05-04T11:51:55.123Z,99866.52
2023-05-04T11:53:00.177Z,99865.17
2023-05-04T11:54:02.472Z,99865.73
2023-05-04T11:55:06.669Z,99859.85
2023-05-04T11:56:09.903Z,99857.59
2023-05-04T11:57:12.233Z,99854.33
2023-05-04T11:58:16.280Z,99854.98
2023-05-04T11:59:18.683Z,99849.98
2023-05-04T12:00:21.116Z,99852.63
2023-05-04T12:01:23.598Z,99855.20
2023-05-04T12:02:26.120Z,99853.97
2023-05-04T12:03:39.615Z,99854.28
2023-05-04T12:04:31.037Z,99852.75
2023-05-04T12:05:33.476Z,99838.26
2023-05-04T12:06:35.868Z,99840.88
2023-05-04T12:07:38.344Z,99835.65
2023-05-04T12:08:42.628Z,99836.34
2023-05-04T12:09:44.779Z,99834.80
2023-05-04T12:19:19.032Z,99829.55
2023-05-04T12:20:21.459Z,99830.68
2023-05-04T12:21:23.988Z,99831.59
2023-05-04T12:22:26.544Z,99828.59
2023-05-04T12:23:30.655Z,99830.16
2023-05-04T12:24:33.042Z,99826.33
2023-05-04T12:25:44.299Z,99826.16
2023-05-04T12:26:42.093Z,99823.83
2023-05-04T12:27:46.050Z,99826.04
2023-05-04T12:28:49.978Z,99831.70
2023-05-04T12:29:52.356Z,99825.55
2023-05-04T12:30:54.915Z,99827.92
2023-05-04T12:31:59.036Z,99828.23
2023-05-04T12:33:01.441Z,99832.15
2023-05-04T12:34:05.521Z,99830.42
2023-05-04T12:35:09.536Z,99824.91
2023-05-04T12:36:13.505Z,99826.45
2023-05-04T12:37:15.847Z,99824.59
2023-05-04T12:38:18.353Z,99827.21
2023-05-04T12:39:20.877Z,99821.52
2023-05-04T12:40:28.491Z,99822.96
2023-05-04T12:41:27.464Z,99821.66
2023-05-04T12:42:29.917Z,99817.77
2023-05-04T12:43:32.405Z,99814.30
2023-05-04T12:44:34.862Z,99806.66
2023-05-04T12:45:37.358Z,99803.76
2023-05-04T12:46:41.503Z,99808.53
2023-05-04T12:47:45.457Z,99808.28
2023-05-04T12:48:47.851Z,99807.33
2023-05-04T12:49:51.968Z,99806.56
2023-05-04T12:50:54.367Z,99805.23
2023-05-04T12:51:58.506Z,99805.40
2023-05-04T12:53:00.903Z,99804.22
2023-05-04T12:54:03.356Z,99805.20
2023-05-04T12:55:07.951Z,99806.66
2023-05-04T12:56:11.437Z,99803.17
2023-05-04T12:57:15.416Z,99798.70
2023-05-04T12:58:17.849Z,99800.77
2023-05-04T12:59:20.380Z,99797.80
2023-05-04T13:00:24.447Z,99796.37
2023-05-04T13:01:29.542Z,99795.59
2023-05-04T13:02:31.817Z,99794.69
2023-05-04T13:03:34.336Z,99787.63
2023-05-04T13:04:36.805Z,99781.16
2023-05-04T13:05:39.316Z,99787.86
2023-05-04T13:06:43.412Z,99786.22
2023-05-04T13:07:45.776Z,99787.75
2023-05-04T13:08:48.313Z,99786.03
2023-05-04T13:09:50.893Z,99785.78
2023-05-04T13:10:54.934Z,99784.14
2023-05-04T13:11:57.358Z,99779.48
2023-05-04T13:12:59.913Z,99775.45
2023-05-04T13:14:03.973Z,99777.39
2023-05-04T13:15:06.514Z,99782.05
2023-05-04T13:16:10.515Z,99782.95
2023-05-04T13:17:12.950Z,99779.23
2023-05-04T13:18:17.286Z,99777.81
2023-05-04T13:19:19.635Z,99776.16
2023-05-04T13:20:22.162Z,99771.38
2023-05-04T13:21:26.290Z,99766.09
2023-05-04T13:22:28.645Z,99760.15
2023-05-04T13:23:35.155Z,99763.86
2023-05-04T13:24:39.209Z,99759.84
2023-05-04T13:34:11.709Z,99747.64
2023-05-04T13:35:14.145Z,99752.77
2023-05-04T13:36:16.661Z,99750.50
2023-05-04T13:37:20.810Z,99748.70
2023-05-04T13:38:24.787Z,99748.85
2023-05-04T13:39:27.187Z,99747.91
2023-05-04T13:40:29.682Z,99746.48
2023-05-04T13:41:32.202Z,99750.34
2023-05-04T13:42:37.290Z,99751.65
2023-05-04T13:43:40.437Z,99745.97
2023-05-04T13:44:42.866Z,99752.70
2023-05-04T13:45:45.316Z,99743.75
2023-05-04T13:46:49.504Z,99737.96
2023-05-04T13:47:51.954Z,99744.02
2023-05-04T13:48:56.434Z,99739.72
2023-05-04T13:49:56.905Z,99734.52
2023-05-04T13:51:01.020Z,99734.33
2023-05-04T14:00:33.456Z,99719.63
2023-05-04T14:01:37.610Z,99716.05
2023-05-04T14:02:40.126Z,99717.24
2023-05-04T14:03:42.545Z,99716.04
2023-05-04T14:04:45.135Z,99711.63
2023-05-04T14:05:47.669Z,99706.83
2023-05-04T14:06:51.800Z,99707.61
2023-05-04T14:07:55.794Z,99702.15
2023-05-04T14:08:58.192Z,99707.46
2023-05-04T14:10:00.735Z,99705.17
2023-05-04T14:11:03.261Z,99703.83
2023-05-04T14:12:07.418Z,99704.52
2023-05-04T14:13:11.417Z,99698.58
2023-05-04T14:14:13.753Z,99696.55
2023-05-04T14:15:16.203Z,99695.91
2023-05-04T14:16:20.311Z,99693.62
2023-05-04T14:17:22.699Z,99688.75
2023-05-04T14:18:26.903Z,99689.83
2023-05-04T14:19:30.847Z,99688.31
2023-05-04T14:20:33.250Z,99689.35
2023-05-04T14:21:35.783Z,99686.80
2023-05-04T14:22:38.364Z,99686.03
2023-05-04T14:23:42.486Z,99685.85
2023-05-04T14:24:44.878Z,99687.31
2023-05-04T14:25:47.384Z,99683.78
2023-05-04T14:26:51.520Z,99679.77
2023-05-04T14:27:55.461Z,99678.60
2023-05-04T14:28:57.849Z,99681.13
2023-05-04T14:30:00.355Z,99674.23
2023-05-04T14:31:02.863Z,99677.38
2023-05-04T14:32:05.429Z,99667.95
2023-05-04T14:33:09.483Z,99670.84
2023-05-04T14:34:13.509Z,99667.31
2023-05-04T14:35:17.502Z,99671.21
2023-05-04T14:36:19.862Z,99665.91
2023-05-04T14:37:22.354Z,99671.21
2023-05-04T14:38:26.483Z,99669.79
2023-05-04T14:39:30.517Z,99673.02
2023-05-04T14:40:32.902Z,99674.13
2023-05-04T14:41:37.109Z,99674.66
2023-05-04T14:42:39.530Z,99667.95
2023-05-04T14:43:42.040Z,99666.58
2023-05-04T14:44:44.534Z,99670.17
2023-05-04T14:45:47.073Z,99666.80
2023-05-04T14:46:49.585Z,99667.66
2023-05-04T14:47:52.147Z,99670.46
2023-05-04T14:48:54.610Z,99669.64
2023-05-04T14:49:57.123Z,99672.75
2023-05-04T14:50:59.722Z,99673.06
2023-05-04T14:52:02.222Z,99666.52
2023-05-04T14:53:06.329Z,99668.28
2023-05-04T14:54:10.338Z,99665.17
2023-05-04T14:55:14.331Z,99666.30
2023-05-04T14:56:18.359Z,99671.89
2023-05-04T14:57:20.724Z,99671.34
2023-05-04T14:58:23.235Z,99669.22
2023-05-04T14:59:25.777Z,99671.81
2023-05-04T15:00:28.261Z,99666.81
2023-05-04T15:01:32.476Z,99662.85
2023-05-04T15:02:34.866Z,99665.09
2023-05-04T15:03:37.398Z,99667.03
2023-05-04T15:04:41.552Z,99663.80
2023-05-04T15:05:45.448Z,99662.80
2023-05-04T15:06:47.837Z,99658.31
2023-05-04T15:07:50.332Z,99661.93
2023-05-04T15:08:52.811Z,99662.66
2023-05-04T15:09:56.998Z,99656.98
2023-05-04T15:10:59.362Z,99657.02
2023-05-04T15:12:01.875Z,99657.55
2023-05-04T15:13:06.073Z,99652.20
2023-05-04T15:14:08.418Z,99649.53
2023-05-04T15:15:11.005Z,99646.34
2023-05-04T15:16:13.504Z,99649.28
2023-05-04T15:17:19.513Z,99649.02
2023-05-04T15:18:21.796Z,99647.46
2023-05-04T15:19:24.131Z,99647.16
2023-05-04T15:20:26.655Z,99644.66
2023-05-04T15:21:30.762Z,99646.52
2023-05-04T15:22:34.746Z,99642.81
2023-05-04T15:23:37.097Z,99643.50
2023-05-04T15:24:39.625Z,99641.91
2023-05-04T15:25:43.749Z,99643.55
2023-05-04T15:26:46.101Z,99641.21
2023-05-04T15:27:48.587Z,99638.23
2023-05-04T15:28:54.038Z,99632.77
2023-05-04T15:29:55.078Z,99636.25
2023-05-04T15:30:59.230Z,99631.09
2023-05-04T15:32:03.264Z,99628.89
2023-05-04T15:33:07.239Z,99622.59
2023-05-04T15:34:09.775Z,99622.75
2023-05-04T15:35:12.237Z,99627.30
2023-05-04T15:36:14.783Z,99621.34
2023-05-04T15:37:17.306Z,99622.42
2023-05-04T15:38:21.405Z,99622.82
2023-05-04T15:39:23.835Z,99618.05
2023-05-04T15:40:28.000Z,99620.11
2023-05-04T15:41:31.359Z,99619.31
2023-05-04T15:42:32.848Z,99616.61
2023-05-04T15:43:36.990Z,99616.13
2023-05-04T15:44:39.369Z,99616.25
2023-05-04T15:45:41.903Z,99612.41
2023-05-04T15:46:46.316Z,99606.91
2023-05-04T15:47:50.401Z,99609.05
2023-05-04T15:48:54.350Z,99603.97
2023-05-04T15:49:56.744Z,99596.13
2023-05-04T15:50:59.263Z,99598.20
2023-05-04T15:52:01.745Z,99592.39
2023-05-04T15:53:05.957Z,99591.30
2023-05-04T15:54:09.949Z,99590.99
2023-05-04T15:55:23.171Z,99591.34
2023-05-04T15:56:14.821Z,99591.05
2023-05-04T15:57:17.414Z,99596.21
2023-05-04T15:58:19.892Z,99594.65
2023-05-04T15:59:24.206Z,99599.88
2023-05-04T16:00:28.239Z,99598.97
2023-05-04T16:01:30.680Z,99602.55
2023-05-04T16:02:34.770Z,99604.16
2023-05-04T16:03:37.183Z,99600.68
2023-05-04T16:04:39.690Z,99605.53
2023-05-04T16:05:43.809Z,99603.41
2023-05-04T16:06:46.234Z,99604.34
2023-05-04T16:07:48.750Z,99604.88
2023-05-04T16:08:51.247Z,99599.64
2023-05-04T16:09:53.728Z,99601.94
2023-05-04T16:10:56.260Z,99598.91
2023-05-04T16:12:00.357Z,99598.53
2023-05-04T16:13:02.736Z,99596.64
2023-05-04T16:14:05.208Z,99599.17
2023-05-04T16:15:09.277Z,99596.05
2023-05-04T16:16:11.659Z,99600.27
2023-05-04T16:17:14.150Z,99596.34
2023-05-04T16:18:18.233Z,99594.38
2023-05-04T16:19:22.173Z,99582.50
2023-05-04T16:20:26.109Z,99583.64
2023-05-04T16:21:28.515Z,99583.28
2023-05-04T16:22:31.032Z,99586.16
2023-05-04T16:23:33.577Z,99582.02
2023-05-04T16:24:36.109Z,99579.14
2023-05-04T16:25:38.622Z,99580.45
2023-05-04T16:26:42.717Z,99581.30
2023-05-04T16:27:46.749Z,99579.09
2023-05-04T16:28:50.710Z,99577.14
2023-05-04T16:29:53.124Z,99574.81
2023-05-04T16:30:55.663Z,99573.28
2023-05-04T16:31:58.216Z,99572.59
2023-05-04T16:33:00.792Z,99569.84
2023-05-04T16:34:04.953Z,99567.41
2023-05-04T16:35:11.110Z,99568.68
2023-05-04T16:36:13.373Z,99569.39
2023-05-04T16:37:15.933Z,99568.78
2023-05-04T16:38:18.435Z,99563.13
2023-05-04T16:39:20.989Z,99566.64
2023-05-04T16:40:23.495Z,99566.75
2023-05-04T16:41:27.645Z,99559.16
2023-05-04T16:42:31.620Z,99558.13
2023-05-04T16:43:35.583Z,99557.44
2023-05-04T16:44:37.955Z,99559.46
2023-05-04T16:45:42.032Z,99560.59
2023-05-04T16:46:44.556Z,99563.19
2023-05-04T16:47:47.021Z,99559.23
2023-05-04T16:48:51.041Z,99559.23
2023-05-04T16:49:53.472Z,99556.56
2023-05-04T16:50:57.623Z,99558.36
2023-05-04T16:52:00.061Z,99563.73
2023-05-04T16:53:04.101Z,99565.30
2023-05-04T16:54:06.467Z,99562.72
2023-05-04T16:55:12.016Z,99562.88
2023-05-04T16:56:13.090Z,99561.80
2023-05-04T16:57:15.619Z,99564.86
2023-05-04T16:58:18.116Z,99560.36
2023-05-04T16:59:22.351Z,99559.95
2023-05-04T17:00:24.757Z,99561.67
2023-05-04T17:01:28.885Z,99562.44
2023-05-04T17:02:32.849Z,99559.81
2023-05-04T17:03:36.779Z,99560.77
2023-05-04T17:04:39.134Z,99558.72
2023-05-04T17:05:41.680Z,99557.48
2023-05-04T17:06:45.950Z,99550.92
2023-05-04T17:07:48.363Z,99549.18
2023-05-04T17:08:52.492Z,99551.95
2023-05-04T17:09:56.447Z,99549.75
2023-05-04T17:10:58.795Z,99551.03
2023-05-04T17:12:03.096Z,99550.81
2023-05-04T17:13:07.028Z,99552.01
2023-05-04T17:14:09.380Z,99548.72
2023-05-04T17:15:13.435Z,99550.32
2023-05-04T17:16:15.940Z,99550.73
2023-05-04T17:17:18.349Z,99554.36
2023-05-04T17:18:22.433Z,99550.50
2023-05-04T17:19:26.420Z,99547.98
2023-05-04T17:20:30.431Z,99551.85
2023-05-04T17:21:34.404Z,99546.05
2023-05-04T17:22:36.831Z,99548.83
2023-05-04T17:23:40.910Z,99554.55
2023-05-04T17:24:45.398Z,99550.77
2023-05-04T17:25:45.755Z,99547.81
2023-05-04T17:26:48.290Z,99548.05
2023-05-04T17:27:53.346Z,99544.40
2023-05-04T17:28:57.235Z,99550.20
2023-05-04T17:29:59.579Z,99547.31
2023-05-04T17:31:02.079Z,99546.33
2023-05-04T17:32:06.316Z,99545.66
2023-05-04T17:33:10.162Z,99547.63
2023-05-04T17:34:14.148Z,99549.27
2023-05-04T17:35:24.957Z,99546.09
2023-05-04T17:36:22.053Z,99545.59
2023-05-04T17:37:24.433Z,99548.53
2023-05-04T17:38:26.938Z,99548.25
2023-05-04T17:39:31.076Z,99548.04
2023-05-04T17:40:35.108Z,99546.23
2023-05-04T17:41:37.514Z,99544.38
2023-05-04T17:42:39.957Z,99543.41
2023-05-04T17:43:42.520Z,99542.80
2023-05-04T17:44:45.000Z,99545.72
2023-05-04T17:45:49.154Z,99549.33
2023-05-04T17:46:53.084Z,99546.55
2023-05-04T17:47:57.102Z,99551.07
2023-05-04T17:49:01.014Z,99549.20
2023-05-04T17:50:03.382Z,99551.63
2023-05-04T17:51:05.879Z,99552.61
2023-05-04T17:52:08.287Z,99549.51
2023-05-04T17:53:10.764Z,99547.52
2023-05-04T17:54:13.217Z,99546.41
2023-05-04T17:55:15.672Z,99548.52
2023-05-04T17:56:18.162Z,99543.56
2023-05-04T17:57:22.261Z,99548.16
2023-05-04T17:58:24.617Z,99552.64
2023-05-04T17:59:27.136Z,99552.93
2023-05-04T18:00:31.269Z,99551.25
2023-05-04T18:01:33.678Z,99558.13
2023-05-04T18:02:36.158Z,99557.67
2023-05-04T18:03:38.762Z,99553.22
2023-05-04T18:04:42.771Z,99556.44
2023-05-04T18:05:46.675Z,99558.87
2023-05-04T18:06:50.744Z,99558.55
2023-05-04T18:07:51.510Z,99558.52
2023-05-04T18:08:55.596Z,99559.84
2023-05-04T18:09:59.552Z,99566.36
2023-05-04T18:11:03.437Z,99563.29
2023-05-04T18:12:07.411Z,99567.13
2023-05-04T18:13:09.797Z,99563.88
2023-05-04T18:14:12.321Z,99567.48
2023-05-04T18:15:16.394Z,99569.00
2023-05-04T18:16:18.792Z,99566.94
2023-05-04T18:17:21.296Z,99567.95
2023-05-04T18:18:23.692Z,99572.42
2023-05-04T18:19:26.127Z,99571.56
2023-05-04T18:20:28.636Z,99573.19
2023-05-04T18:21:31.145Z,99581.27
2023-05-04T18:22:35.152Z,99577.02
2023-05-04T18:23:39.027Z,99578.25
2023-05-04T18:24:42.945Z,99574.40
2023-05-04T18:25:45.340Z,99571.53
2023-05-04T18:26:47.685Z,99573.40
2023-05-04T18:27:50.132Z,99570.88
2023-05-04T18:28:52.527Z,99575.46
2023-05-04T18:29:55.020Z,99575.88
2023-05-04T18:30:57.464Z,99574.02